createdAt,value
2017-09-27T00:01:01.931Z,56.03
2017-09-27T00:03:30.255Z,53.20
2017-09-27T00:05:59.393Z,53.20
2017-09-27T00:08:27.707Z,54.97
2017-09-27T00:10:56.021Z,50.67
2017-09-27T00:13:25.098Z,53.03
2017-09-27T00:15:53.402Z,51.70
2017-09-27T00:18:21.709Z,55.40
2017-09-27T00:20:50.014Z,52.63
2017-09-27T00:23:18.333Z,54.73
2017-09-27T00:25:46.643Z,52.60
2017-09-27T00:28:15.710Z,49.60
2017-09-27T00:30:44.021Z,54.90
2017-09-27T00:33:13.943Z,51.60
2017-09-27T00:35:43.033Z,50.97
2017-09-27T00:38:12.099Z,52.90
2017-09-27T00:40:40.422Z,52.53
2017-09-27T00:43:09.508Z,48.77
2017-09-27T00:45:38.773Z,50.97
2017-09-27T00:48:07.100Z,50.50
2017-09-27T00:50:36.175Z,49.40
2017-09-27T00:53:04.491Z,47.90
2017-09-27T00:55:33.591Z,49.20
2017-09-27T00:58:01.901Z,50.20
2017-09-27T01:00:30.299Z,48.60
2017-09-27T01:02:58.602Z,52.30
2017-09-27T01:05:26.907Z,49.50
2017-09-27T01:07:56.703Z,54.17
2017-09-27T01:10:24.996Z,51.90
2017-09-27T01:12:53.293Z,51.50
2017-09-27T01:15:21.613Z,49.10
2017-09-27T01:17:49.925Z,52.50
2017-09-27T01:20:18.243Z,55.43
2017-09-27T01:22:46.546Z,52.03
2017-09-27T01:25:14.969Z,50.40
2017-09-27T01:27:43.271Z,50.23
2017-09-27T01:30:12.341Z,50.53
2017-09-27T01:32:40.634Z,49.80
2017-09-27T01:35:08.947Z,51.47
2017-09-27T01:37:37.263Z,49.97
2017-09-27T01:40:05.560Z,50.13
2017-09-27T01:42:33.881Z,51.27
2017-09-27T01:45:02.957Z,47.80
2017-09-27T01:47:31.254Z,50.10
2017-09-27T01:50:00.339Z,50.23
2017-09-27T01:52:30.131Z,52.47
2017-09-27T01:54:58.473Z,47.47
2017-09-27T01:57:27.626Z,47.50
2017-09-27T01:59:55.933Z,49.70
2017-09-27T02:02:24.239Z,51.67
2017-09-27T02:04:52.585Z,54.77
2017-09-27T02:07:20.899Z,51.80
2017-09-27T02:09:49.991Z,52.80
2017-09-27T02:12:19.137Z,51.77
2017-09-27T02:14:47.603Z,52.40
2017-09-27T02:17:15.937Z,49.87
2017-09-27T02:19:44.243Z,54.70
2017-09-27T02:22:13.359Z,53.87
2017-09-27T02:24:41.673Z,53.43
2017-09-27T02:27:09.993Z,49.77
2017-09-27T02:29:39.057Z,50.57
2017-09-27T02:32:07.379Z,51.50
2017-09-27T02:34:36.475Z,50.30
2017-09-27T02:37:05.535Z,53.67
2017-09-27T02:39:33.836Z,50.80
2017-09-27T02:42:02.196Z,51.97
2017-09-27T02:44:30.514Z,50.20
2017-09-27T02:46:58.832Z,52.60
2017-09-27T02:49:27.215Z,49.80
2017-09-27T02:51:55.530Z,55.63
2017-09-27T02:54:23.862Z,53.00
2017-09-27T02:56:52.930Z,51.13
2017-09-27T02:59:21.246Z,49.20
2017-09-27T03:01:49.553Z,51.37
2017-09-27T03:04:17.857Z,55.37
2017-09-27T03:06:46.172Z,55.20
2017-09-27T03:09:15.303Z,51.40
2017-09-27T03:11:43.622Z,55.30
2017-09-27T03:14:11.997Z,52.47
2017-09-27T03:16:40.314Z,53.77
2017-09-27T03:19:08.631Z,55.67
2017-09-27T03:21:36.962Z,56.10
2017-09-27T03:24:05.283Z,55.57
2017-09-27T03:26:33.580Z,56.70
2017-09-27T03:29:01.878Z,57.10
2017-09-27T03:31:30.220Z,60.30
2017-09-27T03:33:59.304Z,65.60
2017-09-27T03:36:27.617Z,63.67
2017-09-27T03:38:55.910Z,65.47
2017-09-27T03:41:24.228Z,64.67
2017-09-27T03:43:52.523Z,65.00
2017-09-27T03:46:20.844Z,66.80
2017-09-27T03:48:49.163Z,69.20
2017-09-27T03:51:17.479Z,70.93
2017-09-27T03:53:46.580Z,68.80
2017-09-27T03:56:15.648Z,67.60
2017-09-27T03:58:43.962Z,66.27
2017-09-27T04:01:13.059Z,64.57
2017-09-27T04:03:42.156Z,61.87
2017-09-27T04:06:11.254Z,67.80
2017-09-27T04:08:40.342Z,66.37
2017-09-27T04:11:08.692Z,61.50
2017-09-27T04:13:37.000Z,64.37
2017-09-27T04:16:05.323Z,57.67
2017-09-27T04:18:33.632Z,60.20
2017-09-27T04:21:01.973Z,60.67
2017-09-27T04:23:31.065Z,57.80
2017-09-27T04:26:00.213Z,58.73
2017-09-27T04:28:28.536Z,57.07
2017-09-27T04:30:57.709Z,61.33
2017-09-27T04:33:26.030Z,55.87
2017-09-27T04:35:55.131Z,55.90
2017-09-27T04:38:24.232Z,59.50
2017-09-27T04:40:53.297Z,55.23
2017-09-27T04:43:21.621Z,55.30
2017-09-27T04:45:49.941Z,55.30
2017-09-27T04:48:18.425Z,55.40
2017-09-27T04:50:46.761Z,52.97
2017-09-27T04:53:15.825Z,55.33
2017-09-27T04:55:44.208Z,53.80
2017-09-27T04:58:12.601Z,54.83
2017-09-27T05:00:40.901Z,54.33
2017-09-27T05:03:09.210Z,52.27
2017-09-27T05:05:37.525Z,52.63
2017-09-27T05:08:05.853Z,49.47
2017-09-27T05:10:35.011Z,52.50
2017-09-27T05:13:03.345Z,51.77
2017-09-27T05:15:32.413Z,53.10
2017-09-27T05:18:00.773Z,50.10
2017-09-27T05:20:29.815Z,49.20
2017-09-27T05:22:58.893Z,50.53
2017-09-27T05:25:27.205Z,51.23
2017-09-27T05:27:55.527Z,47.57
2017-09-27T05:30:23.849Z,47.50
2017-09-27T05:32:52.167Z,45.13
2017-09-27T05:35:20.481Z,45.80
2017-09-27T05:37:48.793Z,43.80
2017-09-27T05:40:17.110Z,44.83
2017-09-27T05:42:45.424Z,46.33
2017-09-27T05:45:13.737Z,45.70
2017-09-27T05:47:42.084Z,43.70
2017-09-27T05:50:10.406Z,44.50
2017-09-27T05:52:39.513Z,46.00
2017-09-27T05:55:08.627Z,41.47
2017-09-27T05:57:36.927Z,45.00
2017-09-27T06:00:05.259Z,47.30
2017-09-27T06:02:33.578Z,45.60
2017-09-27T06:05:01.885Z,44.23
2017-09-27T06:07:30.246Z,44.90
2017-09-27T06:09:58.577Z,43.10
2017-09-27T06:12:26.902Z,42.20
2017-09-27T06:14:55.205Z,41.70
2017-09-27T06:17:23.690Z,39.63
2017-09-27T06:19:51.995Z,40.80
2017-09-27T06:22:20.311Z,41.20
2017-09-27T06:24:49.384Z,40.60
2017-09-27T06:27:17.701Z,39.00
2017-09-27T06:29:46.777Z,43.30
2017-09-27T06:32:15.197Z,45.37
2017-09-27T06:34:43.501Z,42.90
2017-09-27T06:37:11.799Z,43.40
2017-09-27T06:39:40.138Z,45.43
2017-09-27T06:42:08.451Z,44.10
2017-09-27T06:44:36.773Z,42.93
2017-09-27T06:47:05.111Z,44.73
2017-09-27T06:49:33.426Z,48.40
2017-09-27T06:52:01.718Z,51.43
2017-09-27T06:54:30.799Z,52.93
2017-09-27T06:56:59.098Z,49.97
2017-09-27T06:59:27.417Z,46.17
2017-09-27T07:01:55.727Z,45.47
2017-09-27T07:04:24.062Z,58.10
2017-09-27T07:06:53.128Z,54.00
2017-09-27T07:09:21.434Z,48.23
2017-09-27T07:11:50.496Z,51.87
2017-09-27T07:14:18.863Z,42.53
2017-09-27T07:16:47.182Z,42.80
2017-09-27T07:19:15.519Z,41.10
2017-09-27T07:21:43.929Z,47.03
2017-09-27T07:24:12.231Z,43.47
2017-09-27T07:26:41.325Z,43.70
2017-09-27T07:29:09.733Z,40.00
2017-09-27T07:31:38.838Z,37.60
2017-09-27T07:34:07.173Z,40.50
2017-09-27T07:36:35.505Z,38.23
2017-09-27T07:39:04.601Z,40.20
2017-09-27T07:41:32.921Z,37.40
2017-09-27T07:44:01.247Z,40.30
2017-09-27T07:46:29.654Z,40.20
2017-09-27T07:48:57.955Z,37.33
2017-09-27T07:51:26.247Z,37.23
2017-09-27T07:53:54.554Z,41.70
2017-09-27T07:56:22.860Z,41.43
2017-09-27T07:58:51.947Z,41.80
2017-09-27T08:01:20.259Z,40.10
2017-09-27T08:03:49.341Z,41.07
2017-09-27T08:06:18.399Z,45.77
2017-09-27T08:08:46.740Z,47.17
2017-09-27T08:11:15.055Z,44.10
2017-09-27T08:13:43.453Z,43.97
2017-09-27T08:16:11.787Z,46.63
2017-09-27T08:18:40.104Z,44.80
2017-09-27T08:21:08.439Z,46.17
2017-09-27T08:23:37.516Z,44.50
2017-09-27T08:26:05.834Z,46.17
2017-09-27T08:28:34.150Z,46.17
2017-09-27T08:31:02.467Z,49.30
2017-09-27T08:33:30.783Z,51.10
2017-09-27T08:35:59.086Z,50.47
2017-09-27T08:38:27.398Z,49.33
2017-09-27T08:40:55.714Z,51.87
2017-09-27T08:43:24.809Z,61.47
2017-09-27T08:45:53.910Z,55.17
2017-09-27T08:48:22.991Z,51.80
2017-09-27T08:50:51.290Z,54.20
2017-09-27T08:53:20.367Z,52.00
2017-09-27T08:55:48.678Z,50.00
2017-09-27T08:58:17.781Z,46.40
2017-09-27T09:00:46.082Z,49.53
2017-09-27T09:03:14.380Z,58.50
2017-09-27T09:05:42.737Z,52.50
2017-09-27T09:08:11.063Z,50.33
2017-09-27T09:10:39.382Z,48.67
2017-09-27T09:13:08.464Z,49.53
2017-09-27T09:15:36.790Z,52.03
2017-09-27T09:18:05.104Z,50.20
2017-09-27T09:20:33.510Z,50.73
2017-09-27T09:23:01.823Z,52.17
2017-09-27T09:25:30.133Z,57.57
2017-09-27T09:27:58.443Z,53.10
2017-09-27T09:30:26.758Z,52.60
2017-09-27T09:32:55.072Z,52.10
2017-09-27T09:35:23.391Z,51.07
2017-09-27T09:37:51.716Z,53.73
2017-09-27T09:40:20.018Z,54.60
2017-09-27T09:42:48.362Z,54.97
2017-09-27T09:49:09.706Z,58.93
2017-09-27T09:51:38.009Z,56.63
2017-09-27T09:54:06.340Z,59.70
2017-09-27T09:56:35.441Z,54.50
2017-09-27T09:59:04.542Z,70.30
2017-09-27T10:01:33.697Z,80.83
2017-09-27T10:04:02.088Z,66.10
2017-09-27T10:06:30.430Z,60.20
2017-09-27T10:08:58.751Z,63.47
2017-09-27T10:11:27.071Z,61.50
2017-09-27T10:13:56.179Z,65.47
2017-09-27T10:16:25.248Z,59.77
2017-09-27T10:18:53.593Z,61.60
2017-09-27T10:21:21.914Z,67.70
2017-09-27T10:23:50.228Z,61.57
2017-09-27T10:26:18.561Z,62.47
2017-09-27T10:28:46.882Z,65.00
2017-09-27T10:31:15.210Z,59.03
2017-09-27T10:33:43.522Z,64.03
2017-09-27T11:04:33.132Z,61.80
2017-09-27T11:07:01.456Z,89.17
2017-09-27T11:09:29.786Z,60.17
2017-09-27T11:11:58.085Z,58.20
2017-09-27T11:14:26.434Z,57.47
2017-09-27T11:16:54.730Z,58.77
2017-09-27T11:19:23.040Z,56.37
2017-09-27T11:21:51.350Z,56.03
2017-09-27T11:24:19.669Z,56.30
2017-09-27T11:26:47.996Z,56.00
2017-09-27T11:29:17.070Z,55.03
2017-09-27T11:31:46.147Z,54.20
2017-09-27T11:34:14.487Z,56.50
2017-09-27T11:36:43.562Z,52.90
2017-09-27T11:41:50.332Z,55.27
2017-09-27T11:44:19.446Z,51.87
2017-09-27T11:46:48.520Z,52.97
2017-09-27T11:49:16.852Z,53.60
2017-09-27T11:51:45.934Z,54.97
2017-09-27T11:54:15.038Z,53.27
2017-09-27T11:56:44.121Z,52.70
2017-09-27T11:59:12.448Z,55.43
2017-09-27T12:01:40.754Z,53.63
2017-09-27T12:04:09.063Z,52.63
2017-09-27T12:06:37.428Z,54.67
2017-09-27T12:09:05.742Z,52.00
2017-09-27T12:11:34.728Z,53.20
2017-09-27T12:14:03.040Z,54.50
2017-09-27T12:16:32.116Z,53.83
2017-09-27T12:19:00.452Z,54.13
2017-09-27T12:21:28.770Z,51.10
2017-09-27T12:23:57.083Z,53.03
2017-09-27T12:26:26.172Z,90.30
2017-09-27T12:28:55.253Z,52.13
2017-09-27T12:31:23.554Z,81.43
2017-09-27T12:33:52.814Z,53.33
2017-09-27T12:36:21.122Z,51.30
2017-09-27T12:38:49.423Z,51.67
2017-09-27T12:41:18.506Z,51.97
2017-09-27T12:43:47.624Z,51.33
2017-09-27T12:46:16.700Z,55.50
2017-09-27T12:48:45.076Z,52.37
2017-09-27T12:51:13.403Z,52.90
2017-09-27T12:53:41.712Z,53.00
2017-09-27T12:56:10.040Z,52.97
2017-09-27T12:58:38.361Z,50.97
2017-09-27T13:01:06.675Z,53.47
2017-09-27T13:03:34.992Z,52.23
2017-09-27T13:06:03.330Z,49.30
2017-09-27T13:08:31.623Z,52.37
2017-09-27T13:10:59.938Z,52.40
2017-09-27T13:13:29.018Z,59.63
2017-09-27T13:15:57.312Z,54.43
2017-09-27T13:18:25.631Z,50.27
2017-09-27T13:20:53.935Z,54.17
2017-09-27T13:23:22.248Z,71.00
2017-09-27T13:25:50.593Z,50.47
2017-09-27T13:28:18.934Z,52.13
2017-09-27T13:30:48.007Z,51.60
2017-09-27T13:33:16.316Z,49.90
2017-09-27T13:35:45.384Z,49.37
2017-09-27T13:38:13.718Z,49.67
2017-09-27T13:40:42.030Z,50.17
2017-09-27T13:43:10.340Z,60.33
2017-09-27T13:45:38.677Z,54.10
2017-09-27T13:48:07.000Z,81.20
2017-09-27T13:50:35.312Z,50.00
2017-09-27T13:53:03.650Z,49.90
2017-09-27T13:55:31.963Z,49.57
2017-09-27T13:58:01.072Z,55.03
2017-09-27T14:00:30.134Z,50.27
2017-09-27T14:02:58.473Z,47.03
2017-09-27T14:05:26.780Z,53.90
2017-09-27T14:07:55.093Z,55.70
2017-09-27T14:10:23.416Z,54.23
2017-09-27T14:12:51.708Z,49.57
2017-09-27T14:15:20.046Z,48.43
2017-09-27T14:17:48.348Z,46.20
2017-09-27T14:20:16.656Z,55.73
2017-09-27T14:22:44.962Z,45.67
2017-09-27T14:25:13.306Z,45.37
2017-09-27T14:27:41.606Z,45.37
2017-09-27T14:30:09.922Z,44.00
2017-09-27T14:32:38.226Z,44.83
2017-09-27T14:35:07.293Z,47.10
2017-09-27T14:37:35.605Z,44.50
2017-09-27T14:40:04.672Z,44.60
2017-09-27T14:42:33.004Z,47.03
2017-09-27T14:45:01.325Z,45.43
2017-09-27T14:47:29.647Z,48.80
2017-09-27T14:49:57.994Z,43.83
2017-09-27T14:52:26.324Z,100.87
2017-09-27T14:54:54.646Z,46.73
2017-09-27T14:57:22.954Z,45.47
2017-09-27T14:59:51.250Z,47.93
2017-09-27T15:02:20.327Z,48.27
2017-09-27T15:04:48.645Z,108.17
2017-09-27T15:07:17.724Z,57.40
2017-09-27T15:09:46.787Z,61.83
2017-09-27T15:12:15.920Z,54.20
2017-09-27T15:14:44.227Z,51.57
2017-09-27T15:17:13.328Z,50.20
2017-09-27T15:19:42.394Z,51.73
2017-09-27T15:22:10.696Z,52.90
2017-09-27T15:24:39.778Z,50.27
2017-09-27T15:27:08.109Z,52.40
2017-09-27T15:29:36.420Z,52.00
2017-09-27T15:32:04.737Z,49.70
2017-09-27T15:34:33.826Z,47.43
2017-09-27T15:37:02.139Z,50.33
2017-09-27T15:39:30.449Z,46.93
2017-09-27T15:41:58.851Z,50.10
2017-09-27T15:44:27.159Z,49.07
2017-09-27T15:46:55.474Z,47.03
2017-09-27T15:49:23.789Z,43.93
2017-09-27T15:51:52.105Z,47.07
2017-09-27T15:54:20.497Z,46.00
2017-09-27T15:56:49.604Z,43.73
2017-09-27T15:59:18.699Z,45.20
2017-09-27T16:01:47.847Z,42.83
2017-09-27T16:04:16.157Z,42.30
2017-09-27T16:06:44.460Z,40.30
2017-09-27T16:09:13.562Z,37.17
2017-09-27T16:11:42.635Z,36.60
2017-09-27T16:14:11.081Z,37.47
2017-09-27T16:16:39.403Z,36.57
2017-09-27T16:19:07.724Z,34.60
2017-09-27T16:21:36.028Z,34.17
2017-09-27T16:24:04.331Z,37.50
2017-09-27T16:26:32.655Z,36.90
2017-09-27T16:29:01.714Z,34.60
2017-09-27T16:31:30.019Z,35.10
2017-09-27T16:33:58.348Z,34.43
2017-09-27T16:36:26.667Z,34.80
2017-09-27T16:38:54.985Z,32.03
2017-09-27T16:41:24.053Z,32.47
2017-09-27T16:43:52.375Z,29.00
2017-09-27T16:46:20.695Z,31.20
2017-09-27T16:48:49.005Z,35.30
2017-09-27T16:51:17.316Z,32.73
2017-09-27T16:53:45.628Z,32.40
2017-09-27T16:56:13.931Z,31.33
2017-09-27T16:58:42.245Z,32.60
2017-09-27T17:01:11.336Z,30.80
2017-09-27T17:03:39.774Z,29.13
2017-09-27T17:06:08.111Z,28.77
2017-09-27T17:08:37.211Z,28.40
2017-09-27T17:11:06.291Z,27.60
2017-09-27T17:13:34.588Z,28.30
2017-09-27T17:16:03.685Z,28.73
2017-09-27T17:18:32.798Z,29.73
2017-09-27T17:21:01.858Z,29.13
2017-09-27T17:23:30.151Z,27.50
2017-09-27T17:25:58.464Z,28.50
2017-09-27T17:28:27.534Z,30.27
2017-09-27T17:30:55.867Z,28.53
2017-09-27T17:33:24.173Z,29.57
2017-09-27T17:35:53.269Z,29.10
2017-09-27T17:38:21.597Z,30.37
2017-09-27T17:40:50.686Z,30.57
2017-09-27T17:43:19.013Z,31.10
2017-09-27T17:45:47.323Z,30.30
2017-09-27T17:48:15.640Z,31.53
2017-09-27T17:50:44.745Z,30.50
2017-09-27T17:53:13.806Z,32.40
2017-09-27T17:55:42.128Z,32.83
2017-09-27T17:58:11.220Z,31.40
2017-09-27T18:00:40.301Z,31.37
2017-09-27T18:03:08.619Z,32.50
2017-09-27T18:08:57.446Z,32.17
2017-09-27T18:11:31.430Z,33.20
2017-09-27T18:17:25.186Z,31.30
2017-09-27T18:19:53.707Z,33.50
2017-09-27T18:22:22.804Z,33.40
2017-09-27T18:24:51.112Z,33.23
2017-09-27T18:27:19.428Z,33.73
2017-09-27T18:29:47.736Z,35.33
2017-09-27T18:32:16.068Z,36.90
2017-09-27T18:34:44.465Z,36.60
2017-09-27T18:37:12.788Z,37.97
2017-09-27T18:39:41.104Z,38.97
2017-09-27T18:42:10.163Z,36.53
2017-09-27T18:44:39.275Z,38.00
2017-09-27T18:47:08.362Z,38.27
2017-09-27T18:49:36.672Z,37.63
2017-09-27T18:52:05.758Z,40.33
2017-09-27T18:54:34.059Z,39.53
2017-09-27T18:57:03.140Z,39.60
2017-09-27T18:59:31.435Z,82.23
2017-09-27T19:02:00.509Z,43.50
2017-09-27T19:04:29.596Z,76.30
2017-09-27T19:06:57.890Z,42.37
2017-09-27T19:09:26.196Z,43.50
2017-09-27T19:11:55.262Z,39.37
2017-09-27T19:14:23.586Z,41.33
2017-09-27T19:16:52.676Z,53.20
2017-09-27T19:19:21.770Z,41.37
2017-09-27T19:21:50.827Z,43.00
2017-09-27T19:24:19.168Z,42.20
2017-09-27T19:26:47.473Z,41.00
2017-09-27T19:29:15.845Z,47.67
2017-09-27T19:31:44.182Z,41.40
2017-09-27T19:34:12.506Z,47.47
2017-09-27T19:36:40.813Z,39.87
2017-09-27T19:39:09.213Z,54.77
2017-09-27T19:41:37.547Z,44.90
2017-09-27T19:44:05.857Z,56.20
2017-09-27T19:46:34.170Z,44.30
2017-09-27T19:49:02.682Z,49.60
2017-09-27T19:51:31.749Z,50.50
2017-09-27T19:54:00.076Z,54.23
2017-09-27T19:56:28.380Z,50.93
2017-09-27T19:58:56.698Z,58.00
2017-09-27T20:01:25.018Z,47.13
2017-09-27T20:03:53.338Z,54.47
2017-09-27T20:06:21.648Z,45.70
2017-09-27T20:08:49.941Z,49.00
2017-09-27T20:11:19.029Z,52.17
2017-09-27T20:13:47.357Z,57.43
2017-09-27T20:16:15.666Z,77.37
2017-09-27T20:18:43.964Z,58.00
2017-09-27T20:21:12.288Z,85.63
2017-09-27T20:23:40.609Z,65.23
2017-09-27T20:26:08.912Z,80.60
2017-09-27T20:28:37.215Z,45.27
2017-09-27T20:31:06.324Z,44.87
2017-09-27T20:33:35.418Z,44.57
2017-09-27T20:36:04.497Z,44.47
2017-09-27T20:38:32.817Z,44.60
2017-09-27T20:41:01.149Z,45.20
2017-09-27T20:43:29.604Z,45.30
2017-09-27T20:45:57.941Z,44.00
2017-09-27T20:48:27.049Z,42.47
2017-09-27T20:50:56.137Z,44.00
2017-09-27T20:53:25.225Z,43.20
2017-09-27T20:55:53.543Z,45.23
2017-09-27T20:58:21.848Z,44.83
2017-09-27T21:00:50.375Z,46.40
2017-09-27T21:03:20.188Z,47.73
2017-09-27T21:05:49.268Z,49.53
2017-09-27T21:08:17.578Z,48.70
2017-09-27T21:10:45.898Z,49.57
2017-09-27T21:13:14.221Z,49.90
2017-09-27T21:15:43.260Z,47.20
2017-09-27T21:18:12.348Z,48.37
2017-09-27T21:20:41.432Z,46.77
2017-09-27T21:23:09.759Z,46.47
2017-09-27T21:25:38.054Z,49.50
2017-09-27T21:28:06.382Z,47.77
2017-09-27T21:30:35.471Z,47.53
2017-09-27T21:33:03.767Z,46.80
2017-09-27T21:35:32.873Z,46.20
2017-09-27T21:38:01.171Z,48.63
2017-09-27T21:40:29.493Z,50.20
2017-09-27T21:42:57.818Z,47.73
2017-09-27T21:45:26.900Z,45.37
2017-09-27T21:47:55.253Z,46.07
2017-09-27T21:50:23.559Z,47.67
2017-09-27T21:52:51.871Z,49.97
2017-09-27T21:55:20.188Z,50.53
2017-09-27T21:57:48.497Z,48.93
2017-09-27T22:00:16.807Z,51.40
2017-09-27T22:02:45.115Z,47.93
2017-09-27T22:05:13.420Z,46.80
2017-09-27T22:07:41.710Z,48.07
2017-09-27T22:10:10.012Z,49.93
2017-09-27T22:12:39.165Z,48.30
2017-09-27T22:15:07.465Z,48.80
2017-09-27T22:17:35.877Z,48.23
2017-09-27T22:20:04.191Z,47.93
2017-09-27T22:22:33.270Z,50.23
2017-09-27T22:25:01.634Z,49.33
2017-09-27T22:27:29.949Z,49.33
2017-09-27T22:29:59.041Z,50.50
2017-09-27T22:32:28.111Z,49.80
2017-09-27T22:34:56.433Z,48.00
2017-09-27T22:37:25.541Z,47.77
2017-09-27T22:39:53.859Z,50.10
2017-09-27T22:42:22.160Z,51.07
2017-09-27T22:44:50.473Z,48.70
2017-09-27T22:47:19.567Z,50.00
2017-09-27T22:49:48.651Z,48.50
2017-09-27T22:52:16.972Z,49.63
2017-09-27T22:54:45.273Z,50.87
2017-09-27T22:57:13.589Z,48.97
2017-09-27T22:59:41.960Z,49.47
2017-09-27T23:02:10.277Z,49.77
2017-09-27T23:04:39.345Z,48.83
2017-09-27T23:07:07.668Z,49.10
2017-09-27T23:09:36.736Z,48.37
2017-09-27T23:12:05.176Z,48.70
2017-09-27T23:14:33.479Z,48.23
2017-09-27T23:17:01.786Z,50.70
2017-09-27T23:19:30.119Z,49.23
2017-09-27T23:21:58.432Z,50.67
2017-09-27T23:24:26.756Z,49.30
2017-09-27T23:26:55.836Z,51.73
2017-09-27T23:29:24.151Z,51.10
2017-09-27T23:31:52.487Z,50.73
2017-09-27T23:34:20.846Z,50.43
2017-09-27T23:36:49.145Z,49.07
2017-09-27T23:39:17.444Z,51.90
2017-09-27T23:41:45.772Z,51.70
2017-09-27T23:44:14.080Z,50.90
2017-09-27T23:46:42.392Z,51.70
2017-09-27T23:49:11.492Z,51.30
2017-09-27T23:51:39.808Z,51.70
2017-09-27T23:54:08.127Z,51.67
2017-09-27T23:56:36.483Z,50.00
2017-09-27T23:59:04.786Z,51.53
